This is the latest recevied weather packets stored in our database for station/object S53BL-10. If no packets are shown the sender has not sent any weather packets the latest 1 day(s).
| Time | Temp. | Humidity | Pressure | Rain* | Wind** | Luminosity | Snow |
|---|---|---|---|---|---|---|---|
| 1778057332 | 15° C | 100% | 1009.8 hPa | - | - | - | - |
| 1778055531 | 15° C | 89% | 1009.3 hPa | - | - | - | - |
| 1778054630 | 15.56° C | 88% | 1009.2 hPa | - | - | - | - |
| 1778053729 | 15.56° C | 86% | 1009 hPa | - | - | - | - |
| 1778051027 | 14.44° C | 96% | 1009.4 hPa | - | - | - | - |
| 1778050126 | 13.89° C | 100% | 1009.5 hPa | - | - | - | - |
| 1778047424 | 13.33° C | 100% | 1009.3 hPa | - | - | - | - |
| 1778046523 | 12.78° C | 100% | 1009.3 hPa | - | - | - | - |
| 1778045622 | 12.78° C | 97% | 1009.2 hPa | - | - | - | - |
| 1778043821 | 12.22° C | 98% | 1009.2 hPa | - | - | - | - |
| 1778042920 | 11.67° C | 98% | 1009.2 hPa | - | - | - | - |
| 1778041433 | 12.22° C | 96% | 1009.1 hPa | - | - | - | - |
| 1778040533 | 12.22° C | 95% | 1009.1 hPa | - | - | - | - |
| 1778039632 | 12.22° C | 94% | 1009.2 hPa | - | - | - | - |
| 1778038731 | 12.22° C | 92% | 1009.3 hPa | - | - | - | - |
| 1778037830 | 12.22° C | 94% | 1009.2 hPa | - | - | - | - |
| 1778036029 | 12.22° C | 92% | 1009.3 hPa | - | - | - | - |
| 1778035128 | 12.78° C | 89% | 1009.5 hPa | - | - | - | - |
| 1778034227 | 12.78° C | 89% | 1009.4 hPa | - | - | - | - |
| 1778033326 | 12.78° C | 89% | 1009.5 hPa | - | - | - | - |
| 1778032426 | 13.33° C | 89% | 1009.5 hPa | - | - | - | - |
| 1778031525 | 13.33° C | 89% | 1009.5 hPa | - | - | - | - |
| 1778030624 | 12.78° C | 89% | 1009.4 hPa | - | - | - | - |
| 1778029723 | 12.78° C | 89% | 1009.3 hPa | - | - | - | - |
| 1778028822 | 12.78° C | 89% | 1009.2 hPa | - | - | - | - |
* Rain since midnight (hover to see other rain measurements)
** Current wind speed in m/s (hover to see current wind gust speed)